createdAt,value
2017-12-12T00:00:45.073Z,964.73
2017-12-12T00:02:06.075Z,964.68
2017-12-12T00:02:45.057Z,964.70
2017-12-12T00:03:45.051Z,964.78
2017-12-12T00:04:45.045Z,964.79
2017-12-12T00:05:45.037Z,964.77
2017-12-12T00:06:45.031Z,964.80
2017-12-12T00:08:06.034Z,964.82
2017-12-12T00:08:45.017Z,964.83
2017-12-12T00:09:45.110Z,964.88
2017-12-12T00:10:45.005Z,964.92
2017-12-12T00:11:45.000Z,964.88
2017-12-12T00:12:44.994Z,964.91
2017-12-12T00:14:05.991Z,964.93
2017-12-12T00:14:44.979Z,964.99
2017-12-12T00:15:44.974Z,965.02
2017-12-12T00:16:44.967Z,964.98
2017-12-12T00:17:44.960Z,965.00
2017-12-12T00:18:44.953Z,965.09
2017-12-12T00:20:05.952Z,965.14
2017-12-12T00:20:44.939Z,965.23
2017-12-12T00:21:44.934Z,965.24
2017-12-12T00:22:44.928Z,965.27
2017-12-12T00:23:44.923Z,965.32
2017-12-12T00:24:44.913Z,965.32
2017-12-12T00:26:05.915Z,965.29
2017-12-12T00:26:44.900Z,965.30
2017-12-12T00:27:44.896Z,965.33
2017-12-12T00:28:44.891Z,965.34
2017-12-12T00:29:44.883Z,965.32
2017-12-12T00:30:44.878Z,965.30
2017-12-12T00:32:05.880Z,965.38
2017-12-12T00:32:44.862Z,965.41
2017-12-12T00:33:44.861Z,965.45
2017-12-12T00:34:44.850Z,965.47
2017-12-12T00:35:44.849Z,965.54
2017-12-12T00:36:44.836Z,965.53
2017-12-12T00:38:05.837Z,965.61
2017-12-12T00:38:44.822Z,965.58
2017-12-12T00:39:44.819Z,965.59
2017-12-12T00:40:44.813Z,965.59
2017-12-12T00:41:44.809Z,965.61
2017-12-12T00:42:44.795Z,965.70
2017-12-12T00:44:05.799Z,965.71
2017-12-12T00:44:44.791Z,965.71
2017-12-12T00:45:44.781Z,965.79
2017-12-12T00:46:44.769Z,965.71
2017-12-12T00:47:44.764Z,965.77
2017-12-12T00:48:44.760Z,965.82
2017-12-12T00:50:05.760Z,965.81
2017-12-12T00:50:44.744Z,965.81
2017-12-12T00:51:44.738Z,965.86
2017-12-12T00:52:44.735Z,965.88
2017-12-12T00:53:44.729Z,965.96
2017-12-12T00:54:44.724Z,966.05
2017-12-12T00:56:05.719Z,965.99
2017-12-12T00:56:44.707Z,965.97
2017-12-12T00:57:44.699Z,965.98
2017-12-12T00:58:44.693Z,966.02
2017-12-12T00:59:44.691Z,966.04
2017-12-12T01:00:44.681Z,966.12
2017-12-12T01:02:05.680Z,966.16
2017-12-12T01:02:44.671Z,966.13
2017-12-12T01:03:44.675Z,966.16
2017-12-12T01:04:44.657Z,966.23
2017-12-12T01:05:44.653Z,966.18
2017-12-12T01:06:44.642Z,966.04
2017-12-12T01:08:05.644Z,966.24
2017-12-12T01:08:44.632Z,966.19
2017-12-12T01:09:44.625Z,966.26
2017-12-12T01:10:44.619Z,966.28
2017-12-12T01:11:44.610Z,966.21
2017-12-12T01:12:44.603Z,966.20
2017-12-12T01:14:05.606Z,966.32
2017-12-12T01:14:44.595Z,966.31
2017-12-12T01:15:44.586Z,966.30
2017-12-12T01:16:44.580Z,966.37
2017-12-12T01:17:44.575Z,966.41
2017-12-12T01:18:44.569Z,966.47
2017-12-12T01:20:05.565Z,966.48
2017-12-12T01:20:44.553Z,966.63
2017-12-12T01:21:44.548Z,966.59
2017-12-12T01:22:44.540Z,966.66
2017-12-12T01:23:44.534Z,966.70
2017-12-12T01:24:44.530Z,966.74
2017-12-12T01:26:05.531Z,966.81
2017-12-12T01:26:44.515Z,966.76
2017-12-12T01:27:44.511Z,966.79
2017-12-12T01:28:44.537Z,966.88
2017-12-12T01:29:44.498Z,966.90
2017-12-12T01:30:44.583Z,966.96
2017-12-12T01:32:05.490Z,966.91
2017-12-12T01:32:44.482Z,967.04
2017-12-12T01:33:44.480Z,967.15
2017-12-12T01:34:44.465Z,967.23
2017-12-12T01:35:44.461Z,967.21
2017-12-12T01:36:44.455Z,967.23
2017-12-12T01:38:05.459Z,967.34
2017-12-12T01:38:44.443Z,967.32
2017-12-12T01:39:44.434Z,967.34
2017-12-12T01:40:44.429Z,967.39
2017-12-12T01:41:44.422Z,967.34
2017-12-12T01:42:44.415Z,967.34
2017-12-12T01:44:05.413Z,967.42
2017-12-12T01:44:44.402Z,967.37
2017-12-12T01:45:44.395Z,967.38
2017-12-12T01:46:44.389Z,967.42
2017-12-12T01:47:44.385Z,967.42
2017-12-12T01:48:44.380Z,967.43
2017-12-12T01:50:05.383Z,967.44
2017-12-12T01:50:44.367Z,967.47
2017-12-12T01:51:44.356Z,967.48
2017-12-12T01:52:44.353Z,967.50
2017-12-12T01:53:44.348Z,967.53
2017-12-12T01:54:44.340Z,967.53
2017-12-12T01:56:05.340Z,967.57
2017-12-12T01:56:44.329Z,967.59
2017-12-12T01:57:44.322Z,967.67
2017-12-12T01:58:44.316Z,967.70
2017-12-12T01:59:44.308Z,967.65
2017-12-12T02:00:44.305Z,967.71
2017-12-12T02:02:05.299Z,967.74
2017-12-12T02:02:44.291Z,967.75
2017-12-12T02:03:44.291Z,967.79
2017-12-12T02:04:44.281Z,967.80
2017-12-12T02:05:44.269Z,967.83
2017-12-12T02:06:44.266Z,967.85
2017-12-12T02:08:05.266Z,967.91
2017-12-12T02:08:44.251Z,967.98
2017-12-12T02:09:44.248Z,967.97
2017-12-12T02:10:44.235Z,968.06
2017-12-12T02:11:44.232Z,968.09
2017-12-12T02:12:44.229Z,968.19
2017-12-12T02:14:05.227Z,968.31
2017-12-12T02:14:44.212Z,968.30
2017-12-12T02:15:44.207Z,968.35
2017-12-12T02:16:44.201Z,968.44
2017-12-12T02:17:44.193Z,968.53
2017-12-12T02:18:44.186Z,968.58
2017-12-12T02:20:05.188Z,968.62
2017-12-12T02:20:44.175Z,968.62
2017-12-12T02:21:44.174Z,968.61
2017-12-12T02:22:44.161Z,968.78
2017-12-12T02:23:44.158Z,968.81
2017-12-12T02:24:44.152Z,968.81
2017-12-12T02:26:05.153Z,968.89
2017-12-12T02:26:44.137Z,968.95
2017-12-12T02:27:44.140Z,968.99
2017-12-12T02:28:44.126Z,968.98
2017-12-12T02:29:44.118Z,969.07
2017-12-12T02:30:44.112Z,969.14
2017-12-12T02:32:05.123Z,969.15
2017-12-12T02:32:44.099Z,969.19
2017-12-12T02:33:44.095Z,969.27
2017-12-12T02:34:44.094Z,969.24
2017-12-12T02:35:44.081Z,969.31
2017-12-12T02:36:44.076Z,969.38
2017-12-12T02:38:05.080Z,969.39
2017-12-12T02:38:44.064Z,969.40
2017-12-12T02:39:44.055Z,969.44
2017-12-12T02:40:44.052Z,969.58
2017-12-12T02:41:44.045Z,969.60
2017-12-12T02:42:44.038Z,969.70
2017-12-12T02:44:05.038Z,969.67
2017-12-12T02:44:44.025Z,969.67
2017-12-12T02:45:44.020Z,969.66
2017-12-12T02:46:44.017Z,969.72
2017-12-12T02:47:44.006Z,969.86
2017-12-12T02:48:43.999Z,969.76
2017-12-12T02:50:05.002Z,969.79
2017-12-12T02:50:43.987Z,969.91
2017-12-12T02:51:43.981Z,969.90
2017-12-12T02:52:43.973Z,969.93
2017-12-12T02:53:43.971Z,970.02
2017-12-12T02:54:43.965Z,970.04
2017-12-12T02:56:04.963Z,969.97
2017-12-12T02:56:43.951Z,970.07
2017-12-12T02:57:43.946Z,970.09
2017-12-12T02:58:43.938Z,970.09
2017-12-12T02:59:43.930Z,970.03
2017-12-12T03:00:43.925Z,970.20
2017-12-12T03:02:04.925Z,970.23
2017-12-12T03:02:43.912Z,970.27
2017-12-12T03:03:43.904Z,970.30
2017-12-12T03:04:43.896Z,970.39
2017-12-12T03:05:43.892Z,970.32
2017-12-12T03:06:43.884Z,970.42
2017-12-12T03:08:04.887Z,970.44
2017-12-12T03:08:43.881Z,970.43
2017-12-12T03:09:43.868Z,970.50
2017-12-12T03:10:43.863Z,970.60
2017-12-12T03:11:43.856Z,970.60
2017-12-12T03:12:43.846Z,970.63
2017-12-12T03:14:04.851Z,970.69
2017-12-12T03:14:43.834Z,970.71
2017-12-12T03:15:43.831Z,970.71
2017-12-12T03:16:43.823Z,970.72
2017-12-12T03:17:43.815Z,970.70
2017-12-12T03:18:43.811Z,970.83
2017-12-12T03:20:04.810Z,970.73
2017-12-12T03:20:43.799Z,970.78
2017-12-12T03:21:43.794Z,970.72
2017-12-12T03:22:43.785Z,970.86
2017-12-12T03:23:43.779Z,970.82
2017-12-12T03:24:43.774Z,970.83
2017-12-12T03:26:04.777Z,970.86
2017-12-12T03:26:43.761Z,970.96
2017-12-12T03:27:43.753Z,970.95
2017-12-12T03:28:43.747Z,971.07
2017-12-12T03:29:43.746Z,971.02
2017-12-12T03:30:43.734Z,970.98
2017-12-12T03:32:04.733Z,971.06
2017-12-12T03:32:43.725Z,971.15
2017-12-12T03:33:43.716Z,971.18
2017-12-12T03:34:43.711Z,971.08
2017-12-12T03:35:43.704Z,971.20
2017-12-12T03:36:43.696Z,971.28
2017-12-12T03:38:04.699Z,971.34
2017-12-12T03:38:43.684Z,971.25
2017-12-12T03:39:43.681Z,971.40
2017-12-12T03:40:43.672Z,971.29
2017-12-12T03:41:43.665Z,971.45
2017-12-12T03:42:43.659Z,971.45
2017-12-12T03:44:04.660Z,971.52
2017-12-12T03:44:43.645Z,971.55
2017-12-12T03:45:43.639Z,971.66
2017-12-12T03:46:43.632Z,971.72
2017-12-12T03:47:43.630Z,971.80
2017-12-12T03:48:43.620Z,971.81
2017-12-12T03:50:04.626Z,971.89
2017-12-12T03:50:43.608Z,971.94
2017-12-12T03:51:43.603Z,971.97
2017-12-12T03:52:43.594Z,972.05
2017-12-12T03:53:43.589Z,972.02
2017-12-12T03:54:43.592Z,972.18
2017-12-12T03:56:04.583Z,972.09
2017-12-12T03:56:43.571Z,972.23
2017-12-12T03:57:43.600Z,972.38
2017-12-12T03:58:43.593Z,972.37
2017-12-12T03:59:43.553Z,972.42
2017-12-12T04:00:43.546Z,972.50
2017-12-12T04:02:04.544Z,972.56
2017-12-12T04:02:43.533Z,972.61
2017-12-12T04:03:43.530Z,972.63
2017-12-12T04:04:43.522Z,972.66
2017-12-12T04:05:43.516Z,972.79
2017-12-12T04:06:43.506Z,972.87
2017-12-12T04:08:04.507Z,972.88
2017-12-12T04:08:43.497Z,972.87
2017-12-12T04:09:43.496Z,972.93
2017-12-12T04:10:43.484Z,972.98
2017-12-12T04:11:43.477Z,972.94
2017-12-12T04:12:43.473Z,973.06
2017-12-12T04:14:04.473Z,973.01
2017-12-12T04:14:43.459Z,973.05
2017-12-12T04:15:43.455Z,973.05
2017-12-12T04:16:43.447Z,973.09
2017-12-12T04:17:43.439Z,973.12
2017-12-12T04:18:43.434Z,973.13
2017-12-12T04:20:04.434Z,973.19
2017-12-12T04:20:43.422Z,973.15
2017-12-12T04:21:43.418Z,973.21
2017-12-12T04:22:43.407Z,973.26
2017-12-12T04:23:43.462Z,973.23
2017-12-12T04:24:43.395Z,973.22
2017-12-12T04:26:04.396Z,973.32
2017-12-12T04:26:43.386Z,973.33
2017-12-12T04:27:43.380Z,973.50
2017-12-12T04:28:43.373Z,973.48
2017-12-12T04:29:43.369Z,973.51
2017-12-12T04:30:43.359Z,973.66
2017-12-12T04:32:04.357Z,973.63
2017-12-12T04:32:43.347Z,973.74
2017-12-12T04:33:43.340Z,973.78
2017-12-12T04:34:43.335Z,973.87
2017-12-12T04:35:43.329Z,974.00
2017-12-12T04:36:43.320Z,973.98
2017-12-12T04:38:04.322Z,974.02
2017-12-12T04:38:43.308Z,974.10
2017-12-12T04:39:43.302Z,974.20
2017-12-12T04:40:43.296Z,974.13
2017-12-12T04:41:43.293Z,974.16
2017-12-12T04:42:43.297Z,974.15
2017-12-12T04:44:04.287Z,974.07
2017-12-12T04:44:43.277Z,974.16
2017-12-12T04:45:43.272Z,974.17
2017-12-12T04:46:43.264Z,974.15
2017-12-12T04:47:43.255Z,974.25
2017-12-12T04:48:43.248Z,974.30
2017-12-12T04:50:04.248Z,974.39
2017-12-12T04:50:43.242Z,974.44
2017-12-12T04:51:43.245Z,974.48
2017-12-12T04:52:43.240Z,974.52
2017-12-12T04:53:43.229Z,974.58
2017-12-12T04:54:43.211Z,974.62
2017-12-12T04:56:04.212Z,974.63
2017-12-12T04:56:43.203Z,974.73
2017-12-12T04:57:43.199Z,974.82
2017-12-12T04:58:43.190Z,974.78
2017-12-12T04:59:43.182Z,974.74
2017-12-12T05:00:43.178Z,974.81
2017-12-12T05:02:04.179Z,974.94
2017-12-12T05:02:43.164Z,974.99
2017-12-12T05:03:43.161Z,975.06
2017-12-12T05:04:43.151Z,975.08
2017-12-12T05:05:43.148Z,975.15
2017-12-12T05:06:43.138Z,975.19
2017-12-12T05:08:04.143Z,975.28
2017-12-12T05:08:43.132Z,975.32
2017-12-12T05:09:43.132Z,975.45
2017-12-12T05:10:43.115Z,975.41
2017-12-12T05:11:43.108Z,975.39
2017-12-12T05:12:43.102Z,975.44
2017-12-12T05:14:04.105Z,975.46
2017-12-12T05:14:43.091Z,975.52
2017-12-12T05:15:43.083Z,975.57
2017-12-12T05:16:43.078Z,975.60
2017-12-12T05:17:43.077Z,975.59
2017-12-12T05:18:43.066Z,975.72
2017-12-12T05:20:04.067Z,975.72
2017-12-12T05:20:43.052Z,975.72
2017-12-12T05:21:43.052Z,975.73
2017-12-12T05:22:43.042Z,975.76
2017-12-12T05:23:43.035Z,975.78
2017-12-12T05:24:43.034Z,975.77
2017-12-12T05:26:04.030Z,975.82
2017-12-12T05:26:43.017Z,975.79
2017-12-12T05:27:43.011Z,975.82
2017-12-12T05:28:43.007Z,975.88
2017-12-12T05:29:42.999Z,975.91
2017-12-12T05:30:42.991Z,975.99
2017-12-12T05:32:03.998Z,975.98
2017-12-12T05:32:42.983Z,976.07
2017-12-12T05:33:42.974Z,976.11
2017-12-12T05:34:42.970Z,976.17
2017-12-12T05:35:42.963Z,976.26
2017-12-12T05:36:42.956Z,976.26
2017-12-12T05:38:03.958Z,976.34
2017-12-12T05:38:42.949Z,976.37
2017-12-12T05:39:42.938Z,976.33
2017-12-12T05:40:42.936Z,976.40
2017-12-12T05:41:42.929Z,976.60
2017-12-12T05:42:42.920Z,976.57
2017-12-12T05:44:03.920Z,976.64
2017-12-12T05:44:42.909Z,976.64
2017-12-12T05:45:42.902Z,976.71
2017-12-12T05:46:42.897Z,976.67
2017-12-12T05:47:42.889Z,976.71
2017-12-12T05:48:42.889Z,976.77
2017-12-12T05:50:03.884Z,976.76
2017-12-12T05:50:42.871Z,976.77
2017-12-12T05:51:42.863Z,976.86
2017-12-12T05:52:42.858Z,976.84
2017-12-12T05:53:42.852Z,976.96
2017-12-12T05:54:42.847Z,977.01
2017-12-12T05:56:03.850Z,977.03
2017-12-12T05:56:42.837Z,977.06
2017-12-12T05:57:42.828Z,977.15
2017-12-12T05:58:42.822Z,977.23
2017-12-12T05:59:42.818Z,977.25
2017-12-12T06:00:42.810Z,977.28
2017-12-12T06:02:03.812Z,977.37
2017-12-12T06:02:42.798Z,977.39
2017-12-12T06:03:42.796Z,977.44
2017-12-12T06:04:42.789Z,977.38
2017-12-12T06:05:42.785Z,977.46
2017-12-12T06:06:42.772Z,977.49
2017-12-12T06:08:03.774Z,977.54
2017-12-12T06:08:42.767Z,977.55
2017-12-12T06:09:42.756Z,977.56
2017-12-12T06:10:42.751Z,977.58
2017-12-12T06:11:42.748Z,977.62
2017-12-12T06:12:42.739Z,977.61
2017-12-12T06:14:03.739Z,977.66
2017-12-12T06:14:42.726Z,977.74
2017-12-12T06:15:42.721Z,977.74
2017-12-12T06:16:42.714Z,977.82
2017-12-12T06:17:42.707Z,977.90
2017-12-12T06:18:42.701Z,977.97
2017-12-12T06:20:03.699Z,977.94
2017-12-12T06:20:42.688Z,978.07
2017-12-12T06:21:42.684Z,978.06
2017-12-12T06:22:42.681Z,978.06
2017-12-12T06:23:42.669Z,978.17
2017-12-12T06:24:42.663Z,978.18
2017-12-12T06:26:03.666Z,978.27
2017-12-12T06:26:42.655Z,978.31
2017-12-12T06:27:42.678Z,978.29
2017-12-12T06:28:42.684Z,978.35
2017-12-12T06:29:42.634Z,978.35
2017-12-12T06:30:42.631Z,978.41
2017-12-12T06:32:03.632Z,978.47
2017-12-12T06:32:42.613Z,978.37
2017-12-12T06:33:42.610Z,978.42
2017-12-12T06:34:42.604Z,978.36
2017-12-12T06:35:42.599Z,978.48
2017-12-12T06:36:42.593Z,978.38
2017-12-12T06:38:03.594Z,978.36
2017-12-12T06:38:42.581Z,978.39
2017-12-12T06:39:42.572Z,978.39
2017-12-12T06:40:42.568Z,978.47
2017-12-12T06:41:42.562Z,978.50
2017-12-12T06:42:42.556Z,978.49
2017-12-12T06:44:03.555Z,978.59
2017-12-12T06:44:42.543Z,978.62
2017-12-12T06:45:42.538Z,978.74
2017-12-12T06:46:42.530Z,978.77
2017-12-12T06:47:42.531Z,978.84
2017-12-12T06:48:42.517Z,978.80
2017-12-12T06:50:03.520Z,978.81
2017-12-12T06:50:42.504Z,978.91
2017-12-12T06:51:42.501Z,979.00
2017-12-12T06:52:42.552Z,979.08
2017-12-12T06:53:42.487Z,979.09
2017-12-12T06:54:42.483Z,979.10
2017-12-12T06:56:03.481Z,979.12
2017-12-12T06:56:42.471Z,979.07
2017-12-12T06:57:42.468Z,979.11
2017-12-12T06:58:42.458Z,979.19
2017-12-12T06:59:42.450Z,979.22
2017-12-12T07:00:42.447Z,979.19
2017-12-12T07:02:03.445Z,979.21
2017-12-12T07:02:42.436Z,979.16
2017-12-12T07:03:42.429Z,979.20
2017-12-12T07:04:42.421Z,979.31
2017-12-12T07:05:42.414Z,979.38
2017-12-12T07:06:42.407Z,979.36
2017-12-12T07:08:03.411Z,979.45
2017-12-12T07:08:42.396Z,979.54
2017-12-12T07:09:42.390Z,979.63
2017-12-12T07:10:42.384Z,979.63
2017-12-12T07:11:42.384Z,979.71
2017-12-12T07:12:42.372Z,979.76
2017-12-12T07:14:03.372Z,979.89
2017-12-12T07:14:42.357Z,979.88
2017-12-12T07:15:42.356Z,979.93
2017-12-12T07:16:42.347Z,980.00
2017-12-12T07:17:42.347Z,979.95
2017-12-12T07:18:42.336Z,980.02
2017-12-12T07:20:03.338Z,980.05
2017-12-12T07:20:42.324Z,980.10
2017-12-12T07:21:42.317Z,980.16
2017-12-12T07:22:42.317Z,980.20
2017-12-12T07:23:42.325Z,980.21
2017-12-12T07:24:42.300Z,980.30
2017-12-12T07:26:03.297Z,980.32
2017-12-12T07:26:42.285Z,980.32
2017-12-12T07:27:42.281Z,980.36
2017-12-12T07:28:42.272Z,980.38
2017-12-12T07:29:42.268Z,980.36
2017-12-12T07:30:42.265Z,980.41
2017-12-12T07:32:03.264Z,980.43
2017-12-12T07:32:42.250Z,980.39
2017-12-12T07:33:42.248Z,980.38
2017-12-12T07:34:42.237Z,980.52
2017-12-12T07:35:42.234Z,980.54
2017-12-12T07:36:42.225Z,980.59
2017-12-12T07:38:03.226Z,980.67
2017-12-12T07:38:42.213Z,980.67
2017-12-12T07:39:42.207Z,980.76
2017-12-12T07:40:42.203Z,980.76
2017-12-12T07:41:42.195Z,980.83
2017-12-12T07:42:42.188Z,980.90
2017-12-12T07:44:03.193Z,980.93
2017-12-12T07:44:42.178Z,980.96
2017-12-12T07:45:42.172Z,981.01
2017-12-12T07:46:42.172Z,981.05
2017-12-12T07:47:42.163Z,981.08
2017-12-12T07:48:42.154Z,981.11
2017-12-12T07:50:03.153Z,981.14
2017-12-12T07:50:42.143Z,981.22
2017-12-12T07:51:42.136Z,981.18
2017-12-12T07:52:42.132Z,981.24
2017-12-12T07:53:42.124Z,981.28
2017-12-12T07:54:42.115Z,981.31
2017-12-12T07:56:03.115Z,981.37
2017-12-12T07:56:42.104Z,981.40
2017-12-12T07:57:42.098Z,981.41
2017-12-12T07:58:42.092Z,981.42
2017-12-12T07:59:42.084Z,981.50
2017-12-12T08:00:42.078Z,981.51
2017-12-12T08:02:03.080Z,981.53
2017-12-12T08:02:42.066Z,981.60
2017-12-12T08:03:42.060Z,981.63
2017-12-12T08:04:42.056Z,981.65
2017-12-12T08:05:42.054Z,981.60
2017-12-12T08:06:42.047Z,981.61
2017-12-12T08:08:03.044Z,981.62
2017-12-12T08:08:42.030Z,981.63
2017-12-12T08:09:42.027Z,981.65
2017-12-12T08:10:42.019Z,981.68
2017-12-12T08:11:42.013Z,981.65
2017-12-12T08:12:42.007Z,981.66
2017-12-12T08:14:03.010Z,981.71
2017-12-12T08:14:41.997Z,981.77
2017-12-12T08:15:41.993Z,981.78
2017-12-12T08:16:41.985Z,981.86
2017-12-12T08:17:41.978Z,981.84
2017-12-12T08:18:41.971Z,981.87
2017-12-12T08:20:02.970Z,981.91
2017-12-12T08:20:41.963Z,981.89
2017-12-12T08:21:41.951Z,981.86
2017-12-12T08:22:41.945Z,981.89
2017-12-12T08:23:41.939Z,981.90
2017-12-12T08:24:41.936Z,981.90
2017-12-12T08:26:02.939Z,981.97
2017-12-12T08:26:41.922Z,981.95
2017-12-12T08:27:41.918Z,982.01
2017-12-12T08:28:41.913Z,982.00
2017-12-12T08:29:41.905Z,982.03
2017-12-12T08:30:41.900Z,982.10
2017-12-12T08:32:02.902Z,982.11
2017-12-12T08:32:41.893Z,982.13
2017-12-12T08:33:41.883Z,982.20
2017-12-12T08:34:41.876Z,982.23
2017-12-12T08:35:41.868Z,982.23
2017-12-12T08:36:41.865Z,982.23
2017-12-12T08:38:02.863Z,982.24
2017-12-12T08:38:41.850Z,982.24
2017-12-12T08:39:41.845Z,982.24
2017-12-12T08:40:41.840Z,982.27
2017-12-12T08:41:41.834Z,982.26
2017-12-12T08:42:41.830Z,982.33
2017-12-12T08:44:02.828Z,982.34
2017-12-12T08:44:41.817Z,982.37
2017-12-12T08:45:41.811Z,982.41
2017-12-12T08:46:41.804Z,982.46
2017-12-12T08:47:41.797Z,982.50
2017-12-12T08:48:41.795Z,982.53
2017-12-12T08:50:02.792Z,982.50
2017-12-12T08:50:41.781Z,982.50
2017-12-12T08:51:41.781Z,982.56
2017-12-12T08:52:41.772Z,982.56
2017-12-12T08:53:41.769Z,982.61
2017-12-12T08:54:41.757Z,982.66
2017-12-12T08:56:02.765Z,982.69
2017-12-12T08:56:41.753Z,982.72
2017-12-12T08:57:41.746Z,982.68
2017-12-12T08:58:41.736Z,982.72
2017-12-12T08:59:41.730Z,982.77
2017-12-12T09:00:41.726Z,982.79
2017-12-12T09:02:02.727Z,982.81
2017-12-12T09:02:41.715Z,982.80
2017-12-12T09:03:41.710Z,982.81
2017-12-12T09:04:41.708Z,982.81
2017-12-12T09:05:41.697Z,982.84
2017-12-12T09:06:41.694Z,982.80
2017-12-12T09:08:02.692Z,982.88
2017-12-12T09:08:41.684Z,982.86
2017-12-12T09:09:41.677Z,982.94
2017-12-12T09:10:41.672Z,982.94
2017-12-12T09:11:41.669Z,982.88
2017-12-12T09:12:41.661Z,982.90
2017-12-12T09:14:02.663Z,982.98
2017-12-12T09:14:41.652Z,983.04
2017-12-12T09:15:41.645Z,983.01
2017-12-12T09:16:41.641Z,983.01
2017-12-12T09:17:41.639Z,983.01
2017-12-12T09:18:41.631Z,983.03
2017-12-12T09:20:02.637Z,983.06
2017-12-12T09:20:41.623Z,983.00
2017-12-12T09:21:41.623Z,983.05
2017-12-12T09:22:41.611Z,983.09
2017-12-12T09:23:41.604Z,983.09
2017-12-12T09:24:41.602Z,983.10
2017-12-12T09:26:02.604Z,983.17
2017-12-12T09:26:41.594Z,983.14
2017-12-12T09:27:41.591Z,983.17
2017-12-12T09:28:41.584Z,983.18
2017-12-12T09:29:41.580Z,983.25
2017-12-12T09:30:41.577Z,983.24
2017-12-12T09:32:02.575Z,983.28
2017-12-12T09:32:41.570Z,983.30
2017-12-12T09:33:41.560Z,983.30
2017-12-12T09:34:41.557Z,983.23
2017-12-12T09:35:41.554Z,983.26
2017-12-12T09:36:41.546Z,983.27
2017-12-12T09:38:02.551Z,983.33
2017-12-12T09:38:41.539Z,983.29
2017-12-12T09:39:41.534Z,983.31
2017-12-12T09:40:41.531Z,983.35
2017-12-12T09:41:41.522Z,983.34
2017-12-12T09:42:41.520Z,983.39
2017-12-12T09:44:02.525Z,983.41
2017-12-12T09:44:41.511Z,983.48
2017-12-12T09:45:41.509Z,983.44
2017-12-12T09:46:41.507Z,983.47
2017-12-12T09:47:41.499Z,983.49
2017-12-12T09:48:41.497Z,983.51
2017-12-12T09:50:02.500Z,983.48
2017-12-12T09:50:41.486Z,983.50
2017-12-12T09:51:41.483Z,983.44
2017-12-12T09:52:41.477Z,983.46
2017-12-12T09:53:41.473Z,983.50
2017-12-12T09:54:41.470Z,983.52
2017-12-12T09:56:02.474Z,983.52
2017-12-12T09:56:41.465Z,983.52
2017-12-12T09:57:41.466Z,983.55
2017-12-12T09:58:41.452Z,983.53
2017-12-12T09:59:41.452Z,983.52
2017-12-12T10:00:41.448Z,983.55
2017-12-12T10:02:02.451Z,983.62
2017-12-12T10:02:41.441Z,983.60
2017-12-12T10:03:41.433Z,983.62
2017-12-12T10:04:41.432Z,983.63
2017-12-12T10:05:41.429Z,983.63
2017-12-12T10:06:41.423Z,983.69
2017-12-12T10:08:02.427Z,983.65
2017-12-12T10:08:41.416Z,983.62
2017-12-12T10:09:41.420Z,983.64
2017-12-12T10:10:41.409Z,983.64
2017-12-12T10:11:41.407Z,983.73
2017-12-12T10:12:41.403Z,983.74
2017-12-12T10:14:02.407Z,983.71
2017-12-12T10:14:41.396Z,983.76
2017-12-12T10:15:41.390Z,983.77
2017-12-12T10:16:41.389Z,983.82
2017-12-12T10:17:41.387Z,983.80
2017-12-12T10:18:41.378Z,983.82
2017-12-12T10:20:02.386Z,983.87
2017-12-12T10:20:41.372Z,983.86
2017-12-12T10:21:41.370Z,983.82
2017-12-12T10:22:41.364Z,983.88
2017-12-12T10:23:41.362Z,983.98
2017-12-12T10:24:41.357Z,983.86
2017-12-12T10:26:02.360Z,983.95
2017-12-12T10:26:41.357Z,983.98
2017-12-12T10:27:41.346Z,983.93
2017-12-12T10:28:41.339Z,984.05
2017-12-12T10:29:41.354Z,984.00
2017-12-12T10:30:41.333Z,984.05
2017-12-12T10:32:02.336Z,984.09
2017-12-12T10:32:41.325Z,984.10
2017-12-12T10:33:41.354Z,984.14
2017-12-12T10:34:41.316Z,984.16
2017-12-12T10:35:41.311Z,984.14
2017-12-12T10:36:41.310Z,984.16
2017-12-12T10:38:02.309Z,984.12
2017-12-12T10:38:41.300Z,984.21
2017-12-12T10:39:41.293Z,984.15
2017-12-12T10:40:41.293Z,984.23
2017-12-12T10:41:41.285Z,984.21
2017-12-12T10:42:41.281Z,984.29
2017-12-12T10:44:02.286Z,984.18
2017-12-12T10:44:41.272Z,984.30
2017-12-12T10:45:41.266Z,984.31
2017-12-12T10:46:41.295Z,984.25
2017-12-12T10:47:41.257Z,984.30
2017-12-12T10:48:41.250Z,984.26
2017-12-12T10:50:02.257Z,984.27
2017-12-12T10:50:41.242Z,984.31
2017-12-12T10:51:41.242Z,984.25
2017-12-12T10:52:41.236Z,984.37
2017-12-12T10:53:41.228Z,984.43
2017-12-12T10:54:41.226Z,984.46
2017-12-12T10:56:02.228Z,984.40
2017-12-12T10:56:41.218Z,984.38
2017-12-12T10:57:41.214Z,984.45
2017-12-12T10:58:41.208Z,984.47
2017-12-12T10:59:41.202Z,984.45
2017-12-12T11:00:41.198Z,984.50
2017-12-12T11:02:02.197Z,984.50
2017-12-12T11:02:41.185Z,984.56
2017-12-12T11:03:41.182Z,984.59
2017-12-12T11:04:41.181Z,984.60
2017-12-12T11:05:41.172Z,984.61
2017-12-12T11:06:41.165Z,984.66
2017-12-12T11:08:02.166Z,984.67
2017-12-12T11:08:41.156Z,984.67
2017-12-12T11:09:41.150Z,984.67
2017-12-12T11:10:41.145Z,984.70
2017-12-12T11:11:41.139Z,984.68
2017-12-12T11:12:41.154Z,984.70
2017-12-12T11:14:02.136Z,984.69
2017-12-12T11:14:41.129Z,984.63
2017-12-12T11:15:41.120Z,984.68
2017-12-12T11:16:41.116Z,984.70
2017-12-12T11:17:41.111Z,984.70
2017-12-12T11:18:41.104Z,984.79
2017-12-12T11:20:02.106Z,984.77
2017-12-12T11:20:41.092Z,984.79
2017-12-12T11:21:41.091Z,984.79
2017-12-12T11:22:41.082Z,984.87
2017-12-12T11:23:41.077Z,984.90
2017-12-12T11:24:41.072Z,984.83
2017-12-12T11:26:02.075Z,984.86
2017-12-12T11:26:41.060Z,984.86
2017-12-12T11:27:41.056Z,984.88
2017-12-12T11:28:41.057Z,984.87
2017-12-12T11:29:41.050Z,984.87
2017-12-12T11:30:41.044Z,984.93
2017-12-12T11:32:02.041Z,984.88
2017-12-12T11:32:41.031Z,984.86
2017-12-12T11:33:41.031Z,984.90
2017-12-12T11:34:41.020Z,984.85
2017-12-12T11:35:41.015Z,984.86
2017-12-12T11:36:41.009Z,984.94
2017-12-12T11:38:02.011Z,984.88
2017-12-12T11:38:40.997Z,984.92
2017-12-12T11:39:40.994Z,984.94
2017-12-12T11:40:40.999Z,984.92
2017-12-12T11:41:40.982Z,984.93
2017-12-12T11:42:40.975Z,984.95
2017-12-12T11:44:01.976Z,985.01
2017-12-12T11:44:40.968Z,985.01
2017-12-12T11:45:40.960Z,984.95
2017-12-12T11:46:40.953Z,984.98
2017-12-12T11:47:40.951Z,984.99
2017-12-12T11:48:40.948Z,984.94
2017-12-12T11:50:01.951Z,985.02
2017-12-12T11:50:40.935Z,984.99
2017-12-12T11:51:40.929Z,985.00
2017-12-12T11:52:40.923Z,985.05
2017-12-12T11:53:40.916Z,985.05
2017-12-12T11:54:40.911Z,985.09
2017-12-12T11:56:01.911Z,985.07
2017-12-12T11:56:40.901Z,985.06
2017-12-12T11:57:40.894Z,985.16
2017-12-12T11:58:40.895Z,985.15
2017-12-12T11:59:40.884Z,985.20
2017-12-12T12:00:40.876Z,985.25
2017-12-12T12:02:01.880Z,985.24
2017-12-12T12:02:40.868Z,985.27
2017-12-12T12:03:40.861Z,985.18
2017-12-12T12:04:40.854Z,985.28
2017-12-12T12:05:40.851Z,985.18
2017-12-12T12:06:40.847Z,985.22
2017-12-12T12:08:01.844Z,985.24
2017-12-12T12:08:40.836Z,985.23
2017-12-12T12:09:40.833Z,985.16
2017-12-12T12:10:40.820Z,985.16
2017-12-12T12:11:40.847Z,985.16
2017-12-12T12:12:40.813Z,985.18
2017-12-12T12:14:01.815Z,985.18
2017-12-12T12:14:40.800Z,985.19
2017-12-12T12:15:40.794Z,985.19
2017-12-12T12:16:40.793Z,985.26
2017-12-12T12:17:40.784Z,985.25
2017-12-12T12:18:40.777Z,985.20
2017-12-12T12:20:01.779Z,985.23
2017-12-12T12:20:40.772Z,985.25
2017-12-12T12:21:40.763Z,985.26
2017-12-12T12:22:40.764Z,985.30
2017-12-12T12:23:40.750Z,985.27
2017-12-12T12:24:40.750Z,985.29
2017-12-12T12:26:01.746Z,985.27
2017-12-12T12:26:40.737Z,985.24
2017-12-12T12:27:40.730Z,985.25
2017-12-12T12:28:40.727Z,985.27